createdAt,value
2022-10-19T00:00:02.058Z,1020.2577952363506
2022-10-19T00:15:01.712Z,1020.1383265639186
2022-10-19T00:30:01.430Z,1020.4025316590581
2022-10-19T00:45:02.057Z,1020.4098872854852
2022-10-19T01:00:01.788Z,1020.3160435654494
2022-10-19T01:15:01.452Z,1020.3284216701978
2022-10-19T01:30:02.140Z,1020.3531628695215
2022-10-19T01:45:01.929Z,1020.3917773123349
2022-10-19T02:00:01.724Z,1020.3172570299545
2022-10-19T02:15:02.344Z,1020.2673752785245
2022-10-19T02:30:01.999Z,1020.4382889371986
2022-10-19T02:45:01.717Z,1020.3559265549942
2022-10-19T03:00:02.304Z,1020.2216973999442
2022-10-19T03:15:01.927Z,1020.1024019939829
2022-10-19T03:30:01.620Z,1020.1493636974316
2022-10-19T03:45:02.279Z,1020.0959374354
2022-10-19T04:00:01.891Z,1020.1900925095714
2022-10-19T04:15:01.561Z,1020.2675949013973
2022-10-19T04:30:02.202Z,1020.2736313370061
2022-10-19T04:45:01.901Z,1020.4066543997561
2022-10-19T05:00:01.560Z,1020.383147339787
2022-10-19T05:15:02.160Z,1020.3020793724983
2022-10-19T05:30:02.003Z,1020.0928563899159
2022-10-19T05:45:01.679Z,1020.0029669564752
2022-10-19T06:00:02.277Z,1019.9799072381707
2022-10-19T06:15:01.943Z,1019.9306222452066
2022-10-19T06:30:01.639Z,1020.1172685712537
2022-10-19T06:45:02.343Z,1020.3887320339974
2022-10-19T07:00:02.024Z,1020.4179209289192
2022-10-19T07:15:01.721Z,1020.4369023431748
2022-10-19T07:30:01.429Z,1020.5165841870544
2022-10-19T07:45:02.073Z,1020.5127922422288
2022-10-19T08:00:01.711Z,1020.6520722648079
2022-10-19T08:15:01.427Z,1020.5930342576013
2022-10-19T08:30:02.098Z,1020.6883201226581
2022-10-19T08:45:01.755Z,1020.6041762311006
2022-10-19T09:00:01.408Z,1020.5793158809615
2022-10-19T09:15:02.046Z,1020.5711489351146
2022-10-19T09:30:01.761Z,1020.6034396032992
2022-10-19T09:45:01.592Z,1020.5554253872702
2022-10-19T10:00:02.409Z,1020.5105200014646
2022-10-19T10:15:02.066Z,1020.5872591637096
2022-10-19T10:30:01.774Z,1020.4731697287347
2022-10-19T10:45:02.459Z,1020.3883427864608
2022-10-19T11:00:02.111Z,1020.0922161674753
2022-10-19T11:15:01.789Z,1019.8554621209754
2022-10-19T11:30:01.530Z,1019.6919568724073
2022-10-19T11:45:02.146Z,1019.5432584437322
2022-10-19T12:00:13.620Z,1019.3674670994105
2022-10-19T12:15:01.684Z,1019.3548600824283
2022-10-19T12:30:02.345Z,1019.1337328717289
2022-10-19T12:45:01.995Z,1018.9190790023848
2022-10-19T13:00:01.640Z,1018.7185847947512
2022-10-19T13:15:02.231Z,1018.5400661787779
2022-10-19T13:30:01.929Z,1018.328223129161
2022-10-19T13:45:01.588Z,1018.2265191345441
2022-10-19T14:00:02.167Z,1018.0099334390271
2022-10-19T14:15:01.828Z,1018.0215038450276
2022-10-19T14:30:01.603Z,1017.6234560970092
2022-10-19T14:45:02.230Z,1017.4462158953132
2022-10-19T15:00:01.892Z,1017.2469783726258
2022-10-19T15:15:01.579Z,1017.2316414423428
2022-10-19T15:30:02.253Z,1017.1538038871475
2022-10-19T15:45:01.899Z,1017.0435824857408
2022-10-19T16:00:01.582Z,1016.9371693066703
2022-10-19T16:15:02.263Z,1016.8701255295696
2022-10-19T16:30:01.938Z,1016.8131472303841
2022-10-19T16:45:01.603Z,1016.8620972577904
2022-10-19T17:00:02.244Z,1016.8415487290009
2022-10-19T17:15:29.895Z,1016.7640942192804
2022-10-19T17:30:01.952Z,1016.7164585400802
2022-10-19T17:45:01.709Z,1016.658466355084
2022-10-19T18:00:02.469Z,1016.4430794524867
2022-10-19T18:15:02.076Z,1016.2351056645748
2022-10-19T18:30:01.780Z,1016.0584553563898
2022-10-19T18:45:02.404Z,1015.8950622942909
2022-10-19T19:00:02.044Z,1015.9113550454423
2022-10-19T19:15:01.723Z,1015.8863558255845
2022-10-19T19:30:02.475Z,1015.8622710624844
2022-10-19T19:45:02.122Z,1015.7055616744348
2022-10-19T20:00:01.756Z,1015.5060199163871
2022-10-19T20:15:02.407Z,1015.3880558115846
2022-10-19T20:30:02.054Z,1015.2780114788183
2022-10-19T20:45:01.737Z,1015.0655825614366
2022-10-19T21:00:02.409Z,1014.9322099483282
2022-10-19T21:15:02.094Z,1014.9194417568218
2022-10-19T21:30:01.778Z,1014.6739728024327
2022-10-19T21:45:25.157Z,1014.5268003069867
2022-10-19T22:00:02.297Z,1014.3794617161541
2022-10-19T22:15:01.912Z,1014.2837850796631
2022-10-19T22:30:01.595Z,1013.9710046746072
2022-10-19T22:45:02.198Z,1013.6691126781307
2022-10-19T23:00:01.775Z,1013.5439708239393
2022-10-19T23:15:01.437Z,1013.452642104573
2022-10-19T23:30:02.034Z,1013.4106993159231
2022-10-19T23:45:01.608Z,1013.3820653202382
